Time;durP1;ratioP1;P1;durP2;ratioP2;P2;SDS_P1;SDS_P2;PMS_P1;PMS_P2;Temp;Humidity;BMP_temperature;BMP_pressure;BME280_temperature;BME280_humidity;BME280_pressure;Samples;Min_cycle;Max_cycle;Signal;HPM_P1;HPM_P2
2022/03/22 03:47:58;;;;;;;50.35;22.77;;;-0.10;63.80;;;;;;4886812;29;20097;-80
2022/03/22 03:50:25;;;;;;;48.38;23.55;;;-0.10;63.80;;;;;;4885041;29;20130;-80
2022/03/22 03:52:51;;;;;;;48.53;22.38;;;-0.10;64.00;;;;;;4884995;29;20044;-80
2022/03/22 03:55:16;;;;;;;43.08;23.02;;;-0.10;64.10;;;;;;4872514;29;20033;-80
2022/03/22 03:57:44;;;;;;;45.55;21.67;;;-0.10;64.60;;;;;;4864013;29;20043;-79
2022/03/22 04:00:10;;;;;;;;;;;-0.10;64.40;;;;;;4829665;29;20041;-80
2022/03/22 04:02:41;;;;;;;47.28;22.08;;;-0.10;64.80;;;;;;4869601;29;19908;-80
2022/03/22 04:05:09;;;;;;;41.25;21.42;;;-0.10;65.10;;;;;;4869153;29;20029;-80
2022/03/22 04:07:35;;;;;;;48.65;22.02;;;-0.10;64.60;;;;;;4855541;29;20034;-79
2022/03/22 04:10:01;;;;;;;55.77;23.40;;;-0.20;64.90;;;;;;4851376;29;20057;-80
2022/03/22 04:12:27;;;;;;;50.55;23.08;;;-0.20;64.70;;;;;;4883432;29;20037;-80
2022/03/22 04:14:53;;;;;;;45.78;20.80;;;-0.20;65.00;;;;;;4843393;29;20041;-79
2022/03/22 04:17:20;;;;;;;42.75;23.20;;;-0.20;64.60;;;;;;4843476;29;20029;-79
2022/03/22 04:19:47;;;;;;;47.53;22.58;;;-0.20;64.80;;;;;;4873959;29;20044;-80
2022/03/22 04:22:13;;;;;;;48.38;21.75;;;-0.20;65.00;;;;;;4870299;29;20034;-80
2022/03/22 04:24:39;;;;;;;;;;;-0.20;65.20;;;;;;4850036;29;20025;-80
2022/03/22 04:32:44;;;;;;;46.45;21.85;;;-0.30;65.70;;;;;;4850919;29;20051;-80
2022/03/22 04:35:17;;;;;;;45.35;23.38;;;-0.30;65.60;;;;;;4827890;29;20037;-80
2022/03/22 04:37:45;;;;;;;49.10;22.60;;;-0.30;65.90;;;;;;4861092;29;20105;-80
2022/03/22 04:40:14;;;;;;;43.03;22.02;;;-0.40;65.90;;;;;;4867024;29;20269;-80
2022/03/22 04:42:42;;;;;;;46.42;22.98;;;-0.40;65.70;;;;;;4828423;29;20034;-80
2022/03/22 04:45:09;;;;;;;60.50;22.77;;;-0.30;65.90;;;;;;4869996;29;20073;-79
2022/03/22 04:47:35;;;;;;;52.25;25.42;;;-0.30;65.90;;;;;;4857854;29;20340;-80
2022/03/22 04:50:03;;;;;;;49.28;22.52;;;-0.40;65.80;;;;;;4842898;29;20041;-81
2022/03/22 04:57:57;;;;;;;49.83;21.52;;;-0.30;66.60;;;;;;4879587;29;20049;-79
2022/03/22 05:00:23;;;;;;;51.20;22.58;;;-0.30;66.40;;;;;;4824434;29;20088;-79
2022/03/22 05:02:48;;;;;;;41.88;21.85;;;-0.30;66.40;;;;;;4824254;29;20210;-79
2022/03/22 05:05:15;;;;;;;39.88;19.95;;;-0.30;66.30;;;;;;4869936;29;20033;-80
2022/03/22 05:07:41;;;;;;;51.33;22.77;;;-0.30;66.00;;;;;;4859713;29;20025;-80
2022/03/22 05:10:08;;;;;;;50.10;22.60;;;-0.30;66.20;;;;;;4857708;29;20036;-79
2022/03/22 05:12:37;;;;;;;44.08;20.80;;;-0.30;66.20;;;;;;4857618;29;20325;-79
2022/03/22 05:15:03;;;;;;;37.28;20.73;;;-0.20;66.40;;;;;;4857939;29;20077;-81
2022/03/22 05:17:29;;;;;;;51.67;24.38;;;-0.20;66.20;;;;;;4872383;29;20044;-80
2022/03/22 05:19:55;;;;;;;40.80;21.40;;;-0.20;66.30;;;;;;4841791;29;20060;-79
2022/03/22 05:22:21;;;;;;;45.45;21.75;;;-0.20;66.70;;;;;;4842657;29;20377;-78
2022/03/22 05:24:47;;;;;;;42.05;20.88;;;-0.20;66.50;;;;;;4873164;29;20089;-80
2022/03/22 05:27:15;;;;;;;45.40;21.48;;;-0.10;66.70;;;;;;4873305;29;20108;-80
2022/03/22 05:29:42;;;;;;;44.63;21.73;;;-0.10;66.90;;;;;;4857416;29;20029;-79
2022/03/22 05:32:08;;;;;;;47.47;22.73;;;0.00;66.90;;;;;;4872761;29;20333;-79
2022/03/22 05:34:34;;;;;;;46.65;21.20;;;0.00;66.30;;;;;;4857045;29;20041;-80
2022/03/22 05:37:00;;;;;;;50.08;21.85;;;0.10;66.50;;;;;;4842057;29;20334;-79
2022/03/22 05:39:26;;;;;;;47.05;21.15;;;0.20;66.20;;;;;;4872812;29;20029;-79
2022/03/22 05:41:51;;;;;;;45.60;20.88;;;0.30;66.40;;;;;;4857150;29;20033;-79
2022/03/22 05:44:20;;;;;;;41.80;20.58;;;0.40;66.30;;;;;;4827401;29;20036;-79
2022/03/22 05:46:46;;;;;;;37.45;20.30;;;0.50;65.70;;;;;;4862145;29;20416;-79
2022/03/22 05:49:13;;;;;;;49.05;22.50;;;0.60;65.40;;;;;;4831968;29;20041;-79
2022/03/22 05:51:40;;;;;;;51.35;20.58;;;0.70;65.20;;;;;;4854132;29;20037;-81
2022/03/22 05:54:05;;;;;;;40.97;20.10;;;0.80;64.80;;;;;;4859030;29;20692;-79
2022/03/22 05:56:31;;;;;;;45.85;21.45;;;0.90;64.50;;;;;;4825762;29;20053;-80
2022/03/22 05:59:00;;;;;;;42.70;21.25;;;1.00;64.40;;;;;;4823472;29;20071;-80
2022/03/22 06:01:27;;;;;;;50.42;21.65;;;1.10;64.00;;;;;;4848895;29;20317;-80
2022/03/22 06:03:54;;;;;;;51.17;21.25;;;1.20;63.50;;;;;;4845021;29;20273;-81
2022/03/22 06:06:20;;;;;;;;;;;1.30;62.80;;;;;;4844242;29;20040;-81
2022/03/22 06:08:46;;;;;;;51.57;20.07;;;1.50;62.10;;;;;;4840343;29;19914;-79
2022/03/22 06:11:11;;;;;;;51.10;20.05;;;1.60;61.60;;;;;;4845868;29;20030;-79
2022/03/22 06:13:37;;;;;;;56.45;21.77;;;1.80;61.10;;;;;;4841247;29;20041;-79
2022/03/22 06:16:05;;;;;;;49.10;21.33;;;1.90;60.50;;;;;;4833178;29;20109;-79
2022/03/22 06:18:31;;;;;;;45.33;21.17;;;2.00;60.10;;;;;;4813492;29;20033;-79
2022/03/22 06:20:56;;;;;;;42.70;20.45;;;2.20;59.70;;;;;;4866397;29;20039;-79
2022/03/22 06:23:23;;;;;;;42.53;19.88;;;2.30;59.20;;;;;;4855944;29;20033;-80
2022/03/22 06:25:48;;;;;;;52.60;20.58;;;2.50;58.60;;;;;;4812216;29;20041;-80
2022/03/22 06:28:14;;;;;;;51.47;21.85;;;2.60;58.20;;;;;;4843858;29;20344;-81
2022/03/22 06:30:41;;;;;;;42.10;20.90;;;2.70;58.00;;;;;;4834742;29;20384;-80
2022/03/22 06:33:17;;;;;;;83.03;22.45;;;2.90;57.70;;;;;;4840320;29;20263;-81
2022/03/22 06:35:43;;;;;;;46.07;21.23;;;3.00;57.10;;;;;;4839579;29;20057;-80
2022/03/22 06:38:09;;;;;;;41.70;21.15;;;3.10;56.70;;;;;;4844467;29;20022;-80
2022/03/22 06:40:38;;;;;;;43.65;20.15;;;3.30;56.90;;;;;;4854223;29;20025;-80
2022/03/22 06:43:05;;;;;;;49.63;20.88;;;3.40;55.80;;;;;;4860915;29;20088;-80
2022/03/22 06:45:31;;;;;;;39.97;20.33;;;3.50;55.90;;;;;;4842329;29;20113;-80
2022/03/22 06:47:57;;;;;;;45.22;21.42;;;3.60;55.20;;;;;;4835904;29;20109;-80
2022/03/22 06:50:25;;;;;;;44.13;20.05;;;3.70;55.10;;;;;;4840376;29;20029;-80
2022/03/22 06:52:51;;;;;;;;;;;3.90;55.10;;;;;;4843461;29;20049;-80
2022/03/22 06:55:22;;;;;;;39.03;19.92;;;4.00;54.50;;;;;;4859446;29;19912;-80
2022/03/22 06:57:51;;;;;;;49.20;20.30;;;4.10;54.50;;;;;;4859177;29;20048;-80
2022/03/22 07:00:19;;;;;;;45.22;21.35;;;4.20;54.50;;;;;;4870471;29;20073;-80
2022/03/22 07:02:49;;;;;;;42.60;20.67;;;4.30;54.30;;;;;;4840282;29;20032;-80
2022/03/22 07:05:16;;;;;;;50.92;21.65;;;4.40;54.20;;;;;;4858954;29;20020;-80
2022/03/22 07:07:42;;;;;;;44.78;20.85;;;4.50;54.10;;;;;;4858927;29;20029;-80
2022/03/22 07:10:14;;;;;;;50.20;21.87;;;4.70;54.00;;;;;;4859212;29;20041;-80
2022/03/22 07:12:54;;;;;;;43.33;21.95;;;4.80;53.50;;;;;;4858180;29;20085;-80
2022/03/22 07:15:27;;;;;;;41.22;19.75;;;4.90;53.00;;;;;;4873124;29;20101;-80
2022/03/22 07:17:54;;;;;;;45.42;20.88;;;5.00;53.30;;;;;;4857832;29;20028;-80
2022/03/22 07:20:20;;;;;;;47.30;21.50;;;5.10;52.70;;;;;;4875945;29;20043;-80
2022/03/22 07:22:47;;;;;;;37.17;19.95;;;5.20;52.20;;;;;;4838326;29;20040;-79
2022/03/22 07:25:13;;;;;;;41.35;20.65;;;5.40;51.80;;;;;;4857919;29;20039;-79
2022/03/22 07:27:39;;;;;;;39.63;20.20;;;5.60;51.80;;;;;;4857637;29;20333;-80
2022/03/22 07:30:05;;;;;;;44.75;19.08;;;5.70;51.50;;;;;;4858253;29;20056;-80
2022/03/22 07:32:32;;;;;;;42.17;19.67;;;5.90;51.30;;;;;;4842749;29;20108;-81
2022/03/22 07:35:00;;;;;;;34.78;19.83;;;6.10;51.00;;;;;;4857510;29;20029;-80
2022/03/22 07:37:28;;;;;;;42.40;20.67;;;6.20;50.30;;;;;;4858019;29;20616;-81
2022/03/22 07:39:56;;;;;;;45.78;20.40;;;6.30;50.00;;;;;;4843607;29;20039;-81
2022/03/22 07:42:24;;;;;;;50.67;22.02;;;6.40;49.30;;;;;;4842717;29;20103;-81
2022/03/22 07:44:50;;;;;;;49.90;22.73;;;6.50;48.80;;;;;;4858197;29;20025;-80
2022/03/22 07:47:15;;;;;;;36.58;20.38;;;6.70;48.70;;;;;;4858028;29;20048;-79
2022/03/22 07:55:10;;;;;;;44.50;21.15;;;7.20;48.60;;;;;;4877162;29;20041;-79
2022/03/22 07:57:36;;;;;;;40.95;20.05;;;7.40;48.00;;;;;;4857658;29;20277;-81
2022/03/22 08:00:04;;;;;;;36.83;20.23;;;7.50;46.70;;;;;;4851878;29;20317;-80
2022/03/22 08:02:32;;;;;;;35.63;19.73;;;7.70;46.80;;;;;;4861488;29;20037;-80
2022/03/22 08:04:58;;;;;;;44.20;20.65;;;7.90;46.60;;;;;;4867888;29;20029;-80
2022/03/22 08:07:24;;;;;;;43.60;20.95;;;8.10;46.40;;;;;;4854786;29;20363;-80
2022/03/22 08:09:50;;;;;;;58.03;22.02;;;8.30;46.20;;;;;;4857469;29;20104;-80
2022/03/22 08:12:16;;;;;;;45.08;22.17;;;8.60;46.20;;;;;;4839346;29;20389;-80
2022/03/22 08:14:41;;;;;;;39.13;20.73;;;8.70;45.50;;;;;;4856450;29;20073;-80
2022/03/22 08:17:07;;;;;;;37.92;21.70;;;9.00;45.30;;;;;;4871798;29;20252;-80
2022/03/22 08:19:33;;;;;;;45.28;20.63;;;9.20;45.50;;;;;;4859162;29;20060;-80
2022/03/22 08:21:59;;;;;;;41.72;20.25;;;9.40;44.80;;;;;;4872880;29;20033;-80
2022/03/22 08:24:24;;;;;;;38.20;20.45;;;9.60;43.90;;;;;;4868470;29;20095;-80
2022/03/22 08:26:50;;;;;;;34.83;19.10;;;9.80;44.00;;;;;;4855131;29;20033;-77
2022/03/22 08:29:16;;;;;;;40.10;20.42;;;10.10;43.20;;;;;;4871670;29;20037;-77
2022/03/22 08:31:43;;;;;;;37.60;19.42;;;10.30;43.00;;;;;;4871663;29;20344;-79
2022/03/22 08:34:09;;;;;;;36.80;19.05;;;10.50;42.90;;;;;;4856027;29;20639;-80
2022/03/22 08:36:34;;;;;;;44.13;21.08;;;10.70;42.80;;;;;;4825820;29;20048;-80
2022/03/22 08:39:00;;;;;;;39.92;20.42;;;10.70;41.70;;;;;;4867418;29;20013;-80
2022/03/22 08:41:26;;;;;;;43.65;20.98;;;10.80;41.90;;;;;;4850474;29;20084;-81
2022/03/22 08:43:52;;;;;;;39.42;19.88;;;11.00;42.10;;;;;;4872274;29;20036;-80
2022/03/22 08:46:24;;;;;;;43.42;20.45;;;11.20;40.90;;;;;;4868944;29;20052;-80
2022/03/22 08:48:53;;;;;;;45.85;20.60;;;11.30;40.60;;;;;;4854540;29;20037;-80
2022/03/22 08:51:21;;;;;;;44.63;20.83;;;11.30;40.50;;;;;;4853504;29;20041;-78
2022/03/22 08:53:47;;;;;;;38.80;21.70;;;11.40;40.60;;;;;;4872882;29;20040;-80
2022/03/22 08:56:12;;;;;;;41.97;19.17;;;11.60;40.40;;;;;;4854111;29;20041;-80
2022/03/22 08:58:40;;;;;;;34.63;18.80;;;11.70;39.90;;;;;;4853815;29;20053;-79
2022/03/22 09:01:07;;;;;;;42.70;18.92;;;11.90;39.80;;;;;;4870637;29;20297;-80
2022/03/22 09:03:35;;;;;;;39.88;18.13;;;12.00;39.70;;;;;;4856945;29;20076;-80
2022/03/22 09:06:07;;;;;;;33.95;17.50;;;12.10;39.20;;;;;;4889031;24;20248;-80
2022/03/22 09:08:37;;;;;;;30.63;18.00;;;12.30;39.80;;;;;;4861807;29;20034;-79
2022/03/22 09:11:04;;;;;;;40.78;17.92;;;12.60;38.90;;;;;;4862368;29;20070;-79
2022/03/22 09:13:30;;;;;;;29.83;17.60;;;12.80;37.70;;;;;;4862425;29;20134;-79
2022/03/22 09:15:57;;;;;;;29.30;16.35;;;12.90;37.90;;;;;;4856047;29;20263;-79
2022/03/22 09:18:23;;;;;;;33.05;16.25;;;13.10;38.10;;;;;;4883589;29;20030;-79
2022/03/22 09:20:49;;;;;;;37.95;17.50;;;13.30;37.20;;;;;;4864822;29;20069;-80
2022/03/22 09:23:15;;;;;;;29.48;16.70;;;13.50;37.40;;;;;;4872305;29;20029;-78
2022/03/22 09:25:42;;;;;;;36.97;16.67;;;13.70;36.60;;;;;;4854733;29;20221;-79
2022/03/22 09:28:08;;;;;;;;;;;14.00;36.50;;;;;;4857707;29;20325;-79
2022/03/22 09:30:35;;;;;;;24.52;14.18;;;14.30;35.60;;;;;;4866140;29;19907;-78
2022/03/22 09:33:04;;;;;;;23.77;13.70;;;14.40;35.40;;;;;;4826399;29;20030;-79
2022/03/22 09:35:30;;;;;;;22.25;14.20;;;14.60;34.40;;;;;;4876773;29;20037;-79
2022/03/22 09:37:57;;;;;;;24.85;14.68;;;14.60;34.80;;;;;;4872499;29;20368;-79
2022/03/22 09:40:23;;;;;;;26.38;13.68;;;14.70;34.40;;;;;;4889097;29;20088;-79
2022/03/22 09:42:50;;;;;;;27.95;14.55;;;14.80;33.80;;;;;;4888293;29;20033;-79
2022/03/22 09:45:18;;;;;;;26.98;14.60;;;14.80;34.20;;;;;;4882163;29;20036;-79
2022/03/22 09:47:45;;;;;;;23.90;13.18;;;15.00;34.20;;;;;;4890585;29;20040;-79
2022/03/22 09:50:15;;;;;;;26.58;13.90;;;15.10;34.40;;;;;;4872666;29;20035;-79
2022/03/22 09:52:41;;;;;;;33.13;14.52;;;15.40;33.80;;;;;;4888100;29;20035;-79
2022/03/22 09:55:10;;;;;;;32.42;14.18;;;15.50;32.80;;;;;;4850883;29;20359;-79
2022/03/22 09:57:36;;;;;;;25.42;13.73;;;15.50;32.80;;;;;;4847998;29;20041;-79
2022/03/22 10:00:07;;;;;;;31.88;15.18;;;15.50;33.10;;;;;;4857116;29;20348;-79
2022/03/22 10:02:37;;;;;;;26.95;15.45;;;15.70;33.70;;;;;;4889040;29;20029;-79
2022/03/22 10:05:04;;;;;;;30.75;14.93;;;15.80;33.80;;;;;;4865889;29;20065;-79
2022/03/22 10:07:30;;;;;;;27.13;14.10;;;15.80;32.40;;;;;;4867186;29;20071;-79
2022/03/22 10:10:02;;;;;;;23.83;14.73;;;15.80;32.20;;;;;;4865613;29;20041;-79
2022/03/22 10:12:37;;;;;;;23.08;12.57;;;15.90;32.50;;;;;;4871666;29;20326;-80
2022/03/22 10:15:10;;;;;;;19.85;12.65;;;16.10;32.10;;;;;;4854114;29;20033;-80
2022/03/22 10:17:37;;;;;;;18.73;10.00;;;16.10;30.90;;;;;;4888166;29;20063;-79
2022/03/22 10:20:05;;;;;;;27.23;11.23;;;16.20;29.90;;;;;;4880839;29;20120;-79
2022/03/22 10:22:33;;;;;;;17.65;10.43;;;16.30;30.80;;;;;;4889102;29;20068;-80
2022/03/22 10:25:01;;;;;;;20.75;10.27;;;16.40;29.40;;;;;;4857097;29;20201;-80
2022/03/22 10:27:33;;;;;;;17.38;10.98;;;16.50;30.00;;;;;;4888350;29;20036;-80
2022/03/22 10:30:02;;;;;;;19.15;10.52;;;16.70;28.80;;;;;;4857445;29;20067;-80
2022/03/22 10:32:34;;;;;;;21.42;10.35;;;16.70;29.00;;;;;;4860164;29;20064;-80
2022/03/22 10:35:17;;;;;;;27.45;10.50;;;16.80;28.90;;;;;;4875782;29;20032;-80
2022/03/22 10:37:55;;;;;;;20.50;10.75;;;16.80;28.00;;;;;;4872418;29;20328;-80
2022/03/22 10:40:31;;;;;;;16.58;10.73;;;16.80;28.10;;;;;;4873068;29;20376;-81
2022/03/22 10:43:03;;;;;;;16.70;10.48;;;16.80;28.50;;;;;;4870890;29;20044;-79
2022/03/22 10:45:40;;;;;;;15.65;10.68;;;17.10;29.10;;;;;;4882305;29;20312;-81
2022/03/22 10:48:06;;;;;;;16.73;10.00;;;17.30;28.60;;;;;;4875098;29;20029;-81
2022/03/22 10:50:37;;;;;;;15.27;9.52;;;17.30;27.70;;;;;;4851255;29;20033;-81
2022/03/22 10:53:03;;;;;;;18.58;10.77;;;17.30;27.90;;;;;;4856967;29;20033;-81
2022/03/22 10:55:30;;;;;;;27.13;9.63;;;17.20;27.80;;;;;;4884285;29;20025;-80
2022/03/22 10:57:58;;;;;;;15.43;9.35;;;17.20;28.30;;;;;;4844659;29;20351;-80
2022/03/22 11:00:32;;;;;;;16.67;10.55;;;17.40;28.40;;;;;;4890581;29;20209;-81
2022/03/22 11:02:59;;;;;;;21.30;9.88;;;17.50;28.00;;;;;;4863210;29;20043;-81
2022/03/22 11:05:27;;;;;;;22.80;9.80;;;17.60;28.10;;;;;;4862619;29;20101;-81
2022/03/22 11:07:54;;;;;;;22.85;10.05;;;17.70;26.80;;;;;;4867776;29;20056;-81
2022/03/22 11:10:25;;;;;;;21.08;10.88;;;17.50;27.00;;;;;;4844048;29;20089;-81
2022/03/22 11:12:52;;;;;;;18.30;9.23;;;17.40;27.00;;;;;;4859225;29;20064;-81
2022/03/22 11:15:18;;;;;;;16.42;10.38;;;17.40;27.90;;;;;;4837527;29;20030;-81
2022/03/22 11:17:49;;;;;;;16.90;9.17;;;17.50;27.50;;;;;;4837566;29;20050;-82
2022/03/22 11:20:15;;;;;;;12.63;9.18;;;17.70;27.90;;;;;;4853287;29;20038;-82
2022/03/22 11:22:49;;;;;;;19.35;9.30;;;17.80;28.10;;;;;;4840369;29;20033;-82
2022/03/22 11:25:18;;;;;;;17.85;9.80;;;17.80;27.00;;;;;;4846020;29;20072;-82
2022/03/22 11:28:03;;;;;;;19.17;9.02;;;17.80;27.10;;;;;;4837331;29;20033;-82
2022/03/22 11:30:30;;;;;;;18.40;8.93;;;17.90;27.30;;;;;;4852589;29;20050;-82
2022/03/22 11:35:56;;;;;;;13.70;8.75;;;18.10;26.70;;;;;;4843918;29;20261;-80
2022/03/22 11:38:53;;;;;;;15.70;8.52;;;18.20;27.20;;;;;;4845886;29;20054;-82
2022/03/22 11:44:12;;;;;;;14.18;9.02;;;18.10;26.10;;;;;;4840736;29;19979;-82
2022/03/22 11:46:38;;;;;;;18.27;8.38;;;18.20;26.30;;;;;;4844747;29;20330;-81
2022/03/22 11:49:26;;;;;;;13.07;8.77;;;18.20;26.90;;;;;;4821157;29;20056;-81
2022/03/22 11:51:55;;;;;;;10.18;6.68;;;18.30;26.20;;;;;;4819023;29;20049;-81
2022/03/22 11:54:22;;;;;;;13.63;7.22;;;18.30;25.90;;;;;;4837072;29;20049;-81
2022/03/22 11:56:51;;;;;;;14.40;7.88;;;18.30;25.70;;;;;;4851969;29;20037;-81
2022/03/22 11:59:20;;;;;;;20.83;6.93;;;18.40;25.40;;;;;;4836696;29;20037;-81
2022/03/22 12:02:03;;;;;;;11.10;7.55;;;18.30;25.40;;;;;;4821275;29;20547;-81
2022/03/22 12:04:52;;;;;;;12.43;7.10;;;18.40;24.60;;;;;;4836484;29;20067;-81
2022/03/22 12:07:23;;;;;;;12.27;7.60;;;18.40;25.50;;;;;;4853343;29;20292;-81
2022/03/22 12:09:49;;;;;;;21.77;8.02;;;18.60;25.80;;;;;;4862613;29;20337;-81
2022/03/22 12:12:15;;;;;;;15.30;7.88;;;18.70;26.00;;;;;;4830729;29;20030;-81
2022/03/22 12:14:45;;;;;;;10.60;6.97;;;18.80;26.00;;;;;;4829574;29;20078;-81
2022/03/22 12:17:12;;;;;;;19.75;8.02;;;18.90;26.00;;;;;;4847019;29;20128;-81
2022/03/22 12:19:38;;;;;;;24.58;7.22;;;19.10;25.50;;;;;;4869679;29;20033;-81
2022/03/22 12:22:07;;;;;;;12.25;6.93;;;19.10;25.20;;;;;;4849445;29;20170;-81
2022/03/22 12:24:34;;;;;;;12.85;7.88;;;19.20;25.00;;;;;;4867630;29;20348;-81
2022/03/22 12:27:05;;;;;;;14.68;8.23;;;19.10;24.30;;;;;;4870719;29;20029;-82
2022/03/22 12:29:36;;;;;;;13.48;6.97;;;19.10;25.40;;;;;;4870741;29;20121;-82
2022/03/22 12:32:06;;;;;;;11.05;7.32;;;19.00;24.50;;;;;;4847667;29;20029;-80
2022/03/22 12:34:36;;;;;;;13.48;6.82;;;18.90;24.40;;;;;;4859301;29;20091;-81
2022/03/22 12:37:03;;;;;;;14.32;7.28;;;19.10;24.30;;;;;;4870475;29;20527;-82
2022/03/22 12:39:29;;;;;;;11.68;7.13;;;19.10;24.90;;;;;;4869653;29;20053;-81
2022/03/22 12:41:57;;;;;;;11.00;6.07;;;19.30;25.00;;;;;;4843119;29;20149;-81
2022/03/22 12:44:23;;;;;;;11.18;6.57;;;19.50;24.30;;;;;;4855223;29;20229;-81
2022/03/22 12:46:49;;;;;;;12.18;7.32;;;19.40;23.80;;;;;;4849572;29;20073;-81
2022/03/22 12:49:15;;;;;;;12.75;6.40;;;19.40;23.80;;;;;;4868453;29;20035;-81
2022/03/22 12:51:40;;;;;;;12.88;7.00;;;19.40;24.80;;;;;;4830546;29;20041;-81
2022/03/22 12:54:08;;;;;;;13.38;6.55;;;19.50;24.00;;;;;;4855207;29;20033;-80
2022/03/22 12:56:34;;;;;;;11.13;6.45;;;19.40;24.30;;;;;;4860501;29;20046;-80
2022/03/22 12:59:01;;;;;;;10.95;6.43;;;19.40;24.20;;;;;;4854969;29;20389;-81
2022/03/22 13:01:38;;;;;;;15.38;6.97;;;19.30;24.30;;;;;;4826953;29;20295;-81
2022/03/22 13:04:06;;;;;;;13.45;6.95;;;19.30;23.90;;;;;;4839765;29;20033;-81
2022/03/22 13:06:32;;;;;;;9.68;6.72;;;19.50;24.20;;;;;;4853342;29;20298;-81
2022/03/22 13:11:43;;;;;;;9.70;6.40;;;19.80;24.00;;;;;;4841122;29;20185;-81
2022/03/22 13:16:57;;;;;;;11.32;6.90;;;19.70;24.10;;;;;;4869524;29;20048;-81
2022/03/22 13:19:30;;;;;;;19.38;6.35;;;19.80;23.90;;;;;;4853879;29;20036;-81
2022/03/22 13:21:56;;;;;;;15.65;6.25;;;19.90;24.40;;;;;;4853926;29;20186;-81
2022/03/22 13:24:24;;;;;;;14.07;6.60;;;20.20;23.90;;;;;;4877046;29;20032;-81
2022/03/22 13:26:58;;;;;;;11.80;6.35;;;20.20;24.00;;;;;;4851649;29;20053;-82
2022/03/22 13:29:34;;;;;;;9.05;6.57;;;20.20;23.90;;;;;;4850454;29;20374;-81
2022/03/22 13:32:03;;;;;;;9.73;6.50;;;20.20;23.60;;;;;;4867156;29;20052;-81
2022/03/22 13:34:31;;;;;;;10.63;6.03;;;20.20;24.10;;;;;;4872794;29;20029;-81
2022/03/22 13:37:15;;;;;;;12.32;7.38;;;20.30;24.30;;;;;;4872618;29;20032;-82
2022/03/22 13:39:43;;;;;;;16.33;7.88;;;20.40;24.20;;;;;;4872684;29;20108;-81
2022/03/22 13:42:16;;;;;;;13.85;7.78;;;20.40;23.70;;;;;;4842462;29;20028;-81
2022/03/22 13:44:54;;;;;;;12.02;7.20;;;20.30;24.10;;;;;;4889364;29;20029;-82
2022/03/22 13:47:31;;;;;;;12.88;6.80;;;20.30;23.70;;;;;;4864443;29;20060;-82
2022/03/22 13:50:12;;;;;;;13.13;7.07;;;20.10;23.80;;;;;;4857403;29;20040;-82
2022/03/22 13:52:38;;;;;;;11.82;7.95;;;20.10;23.80;;;;;;4865459;29;20029;-82
2022/03/22 13:55:19;;;;;;;9.65;6.88;;;20.20;23.80;;;;;;4851593;29;20237;-81
2022/03/22 13:57:50;;;;;;;10.23;7.38;;;20.30;24.00;;;;;;4864699;29;20100;-82
2022/03/22 14:00:19;;;;;;;9.15;6.95;;;20.30;23.70;;;;;;4838744;29;20037;-82
2022/03/22 14:02:44;;;;;;;9.40;6.22;;;20.20;24.20;;;;;;4863001;29;20596;-82
2022/03/22 14:05:10;;;;;;;10.38;6.43;;;20.20;23.50;;;;;;4863155;29;20043;-81
2022/03/22 14:07:36;;;;;;;11.02;7.07;;;20.30;24.40;;;;;;4863046;29;20120;-81
2022/03/22 14:10:03;;;;;;;11.00;7.30;;;20.40;24.50;;;;;;4862056;29;20032;-82
2022/03/22 14:12:29;;;;;;;14.27;7.97;;;20.50;24.20;;;;;;4863119;29;20032;-82
2022/03/22 14:14:55;;;;;;;14.57;7.30;;;20.60;24.00;;;;;;4864420;29;20146;-82
2022/03/22 14:17:21;;;;;;;9.82;6.50;;;20.70;24.50;;;;;;4860084;29;20045;-82
2022/03/22 14:19:46;;;;;;;12.13;6.65;;;20.90;24.40;;;;;;4844979;29;20029;-82
2022/03/22 14:22:12;;;;;;;13.32;6.55;;;20.90;23.40;;;;;;4863028;29;20056;-82
2022/03/22 14:24:38;;;;;;;15.85;7.30;;;20.80;23.30;;;;;;4863010;29;20032;-82
2022/03/22 14:27:05;;;;;;;10.70;6.85;;;20.80;23.70;;;;;;4860031;29;20037;-82
2022/03/22 14:29:30;;;;;;;13.05;6.03;;;20.80;23.50;;;;;;4878510;29;20128;-82
2022/03/22 14:31:57;;;;;;;8.88;6.20;;;20.70;23.20;;;;;;4863048;29;20082;-82
2022/03/22 14:37:07;;;;;;;12.80;6.32;;;20.60;23.80;;;;;;4860479;29;20040;-81
2022/03/22 14:39:34;;;;;;;9.25;6.45;;;20.70;23.60;;;;;;4859768;29;20085;-82
2022/03/22 14:42:02;;;;;;;8.13;6.25;;;20.60;23.60;;;;;;4844897;29;20321;-82
2022/03/22 14:44:28;;;;;;;16.30;6.82;;;20.50;24.00;;;;;;4845239;29;20093;-82
2022/03/22 14:46:54;;;;;;;12.55;6.97;;;20.60;24.00;;;;;;4844454;29;20120;-82
2022/03/22 14:49:21;;;;;;;16.60;7.15;;;20.70;23.60;;;;;;4883623;29;20100;-81
2022/03/22 14:54:35;;;;;;;12.93;6.45;;;20.60;23.80;;;;;;4864407;29;19915;-82
2022/03/22 14:59:45;;;;;;;10.73;6.88;;;20.60;23.40;;;;;;4864995;29;20332;-82
2022/03/22 15:02:13;;;;;;;9.80;6.82;;;20.60;23.80;;;;;;4878276;29;20093;-82
2022/03/22 15:04:42;;;;;;;10.15;6.45;;;20.50;23.60;;;;;;4893327;29;20225;-82
2022/03/22 15:07:09;;;;;;;13.02;6.57;;;20.50;23.70;;;;;;4847570;29;20210;-82
2022/03/22 15:09:35;;;;;;;11.23;6.77;;;20.60;23.60;;;;;;4878108;29;20068;-81
2022/03/22 15:12:02;;;;;;;10.20;6.45;;;20.50;23.70;;;;;;4875494;29;20290;-82
2022/03/22 15:14:28;;;;;;;12.35;5.68;;;20.40;23.80;;;;;;4859402;29;20060;-82
2022/03/22 15:16:53;;;;;;;9.82;6.57;;;20.30;24.00;;;;;;4844505;29;20116;-82
2022/03/22 15:19:19;;;;;;;12.25;6.30;;;20.30;24.10;;;;;;4844236;29;20033;-82
2022/03/22 15:21:45;;;;;;;9.07;6.97;;;20.30;23.70;;;;;;4875469;29;20217;-82
2022/03/22 15:24:11;;;;;;;10.85;6.82;;;20.30;23.70;;;;;;4843619;29;20030;-82
2022/03/22 15:26:37;;;;;;;10.20;5.93;;;20.30;23.70;;;;;;4844289;29;20356;-82
2022/03/22 15:29:03;;;;;;;16.07;7.67;;;20.30;23.90;;;;;;4844190;29;20044;-82
2022/03/22 15:31:29;;;;;;;16.80;6.95;;;20.30;23.80;;;;;;4859628;29;20090;-82
2022/03/22 15:33:58;;;;;;;8.43;6.57;;;20.20;24.20;;;;;;4857505;29;20112;-81
2022/03/22 15:36:24;;;;;;;9.90;6.03;;;20.10;23.90;;;;;;4856755;29;20207;-81
2022/03/22 15:38:50;;;;;;;17.08;7.43;;;19.90;24.00;;;;;;4826602;29;20086;-82
2022/03/22 15:41:16;;;;;;;10.40;7.28;;;20.00;24.10;;;;;;4858892;29;20053;-81
2022/03/22 15:43:42;;;;;;;14.52;6.93;;;19.80;24.20;;;;;;4844964;29;20036;-82
2022/03/22 15:46:09;;;;;;;14.73;6.70;;;19.70;24.40;;;;;;4875601;29;20096;-82
2022/03/22 15:48:38;;;;;;;14.27;7.30;;;19.50;24.90;;;;;;4872734;29;20109;-82
2022/03/22 15:51:04;;;;;;;11.43;6.60;;;19.40;24.60;;;;;;4892434;29;20102;-82
2022/03/22 15:53:31;;;;;;;12.60;6.00;;;19.20;24.90;;;;;;4860579;29;20033;-81
2022/03/22 15:55:59;;;;;;;12.40;6.35;;;19.20;24.80;;;;;;4857164;29;20037;-81
2022/03/22 15:58:25;;;;;;;8.80;6.00;;;19.00;24.90;;;;;;4872165;29;20056;-81
2022/03/22 16:00:50;;;;;;;10.27;6.75;;;18.80;25.10;;;;;;4843073;29;20125;-82
2022/03/22 16:03:16;;;;;;;11.15;7.00;;;18.60;25.00;;;;;;4867667;29;20035;-81
2022/03/22 16:05:42;;;;;;;11.07;7.07;;;18.50;25.10;;;;;;4873909;29;20344;-82
2022/03/22 16:08:08;;;;;;;16.83;8.23;;;18.20;25.20;;;;;;4860134;29;20045;-82
2022/03/22 16:10:34;;;;;;;13.07;6.57;;;18.00;25.60;;;;;;4873298;29;20225;-81
2022/03/22 16:13:00;;;;;;;16.35;7.10;;;17.80;26.00;;;;;;4876031;29;20028;-81
2022/03/22 16:15:28;;;;;;;13.50;7.80;;;17.60;26.00;;;;;;4892390;29;20235;-81
2022/03/22 16:17:54;;;;;;;15.15;7.32;;;17.40;26.20;;;;;;4843777;29;20166;-81
2022/03/22 16:20:20;;;;;;;19.67;7.65;;;17.20;26.50;;;;;;4859114;29;20077;-81
2022/03/22 16:22:47;;;;;;;14.75;8.30;;;17.10;26.60;;;;;;4857819;29;20029;-81
2022/03/22 16:25:15;;;;;;;15.23;7.80;;;16.90;27.00;;;;;;4874157;29;20029;-81
2022/03/22 16:27:47;;;;;;;18.05;8.70;;;16.80;27.00;;;;;;4889069;29;20213;-80
2022/03/22 16:30:15;;;;;;;12.60;7.20;;;16.70;27.30;;;;;;4858642;29;20221;-80
2022/03/22 16:38:10;;;;;;;17.45;8.65;;;16.30;27.90;;;;;;4872083;29;20038;-80
2022/03/22 16:40:38;;;;;;;15.18;8.68;;;16.20;28.40;;;;;;4873652;29;20084;-81
2022/03/22 16:43:04;;;;;;;17.75;7.88;;;16.10;28.30;;;;;;4870426;29;20215;-80
2022/03/22 16:45:38;;;;;;;15.07;7.97;;;15.90;28.20;;;;;;4836955;29;20045;-81
2022/03/22 16:48:12;;;;;;;14.05;7.38;;;15.80;28.30;;;;;;4859204;29;20033;-81
2022/03/22 16:50:47;;;;;;;13.45;8.00;;;15.70;28.80;;;;;;4873725;29;20024;-81
2022/03/22 16:53:22;;;;;;;16.63;8.82;;;15.60;29.20;;;;;;4873900;29;20220;-81
2022/03/22 16:55:49;;;;;;;27.45;9.48;;;15.40;29.20;;;;;;4855628;29;20025;-81
2022/03/22 16:58:16;;;;;;;21.45;9.50;;;15.30;29.20;;;;;;4840367;29;20114;-81
2022/03/22 17:00:42;;;;;;;19.70;8.98;;;15.10;29.90;;;;;;4852207;29;20321;-81
2022/03/22 17:03:07;;;;;;;17.50;9.70;;;15.00;29.50;;;;;;4855538;29;20040;-81
2022/03/22 17:05:34;;;;;;;16.88;8.50;;;14.80;30.00;;;;;;4873300;29;20060;-81
2022/03/22 17:08:00;;;;;;;16.08;9.52;;;14.70;30.00;;;;;;4858080;29;20368;-81